createdAt,value
2023-02-22T00:00:03.246Z,87.56
2023-02-22T00:02:37.155Z,87.66
2023-02-22T00:05:08.235Z,87.75
2023-02-22T00:07:38.207Z,87.46
2023-02-22T00:10:13.547Z,87.59
2023-02-22T00:12:46.921Z,87.59
2023-02-22T00:15:16.951Z,87.33
2023-02-22T00:17:47.447Z,87.48
2023-02-22T00:20:20.153Z,87.51
2023-02-22T00:22:51.929Z,87.37
2023-02-22T00:25:26.771Z,87.58
2023-02-22T00:27:58.237Z,87.34
2023-02-22T00:30:30.084Z,87.39
2023-02-22T00:33:00.897Z,87.55
2023-02-22T00:35:33.109Z,87.25
2023-02-22T00:38:04.417Z,87.28
2023-02-22T00:40:38.464Z,87.39
2023-02-22T00:43:08.721Z,87.45
2023-02-22T00:45:39.790Z,87.40
2023-02-22T00:48:11.664Z,87.75
2023-02-22T00:50:41.861Z,87.70
2023-02-22T00:53:12.081Z,87.49
2023-02-22T00:55:45.758Z,87.74
2023-02-22T00:58:15.837Z,87.72
2023-02-22T01:00:46.570Z,87.97
2023-02-22T01:03:20.522Z,87.93
2023-02-22T01:05:53.123Z,88.18
2023-02-22T01:08:25.213Z,87.99
2023-02-22T01:10:57.973Z,88.02
2023-02-22T01:13:29.444Z,88.26
2023-02-22T01:16:00.746Z,88.47
2023-02-22T01:18:37.803Z,88.62
2023-02-22T01:21:09.021Z,88.70
2023-02-22T01:23:39.068Z,88.84
2023-02-22T01:26:11.608Z,89.02
2023-02-22T01:28:42.400Z,89.20
2023-02-22T01:31:13.741Z,89.15
2023-02-22T01:33:47.464Z,89.32
2023-02-22T01:36:19.030Z,89.71
2023-02-22T01:38:49.582Z,89.50
2023-02-22T01:41:22.622Z,89.59
2023-02-22T01:43:53.065Z,89.69
2023-02-22T01:46:25.652Z,89.34
2023-02-22T01:49:01.328Z,89.32
2023-02-22T01:51:37.568Z,89.23
2023-02-22T01:54:13.745Z,89.05
2023-02-22T01:56:55.507Z,89.17
2023-02-22T01:59:26.590Z,89.46
2023-02-22T02:01:56.644Z,89.60
2023-02-22T02:04:28.138Z,89.55
2023-02-22T02:07:11.881Z,89.51
2023-02-22T02:09:50.778Z,89.65
2023-02-22T02:12:26.187Z,89.46
2023-02-22T02:14:56.373Z,89.50
2023-02-22T02:17:26.906Z,89.46
2023-02-22T02:20:04.532Z,89.29
2023-02-22T02:22:46.175Z,89.69
2023-02-22T02:25:51.782Z,89.66
2023-02-22T02:28:57.073Z,89.59
2023-02-22T02:32:10.482Z,89.61
2023-02-22T02:34:51.806Z,89.60
2023-02-22T02:37:31.362Z,89.62
2023-02-22T02:40:14.058Z,89.52
2023-02-22T02:42:49.640Z,89.55
2023-02-22T02:45:25.504Z,89.66
2023-02-22T02:47:59.982Z,89.39
2023-02-22T02:50:39.546Z,89.45
2023-02-22T02:53:12.241Z,89.82
2023-02-22T02:55:42.711Z,89.93
2023-02-22T02:58:20.464Z,89.96
2023-02-22T03:00:55.689Z,89.72
2023-02-22T03:03:47.777Z,89.87
2023-02-22T03:06:35.332Z,89.92
2023-02-22T03:09:14.174Z,90.16
2023-02-22T03:11:54.222Z,90.01
2023-02-22T03:14:33.544Z,90.22
2023-02-22T03:17:12.472Z,90.09
2023-02-22T03:19:50.461Z,90.05
2023-02-22T03:22:26.592Z,90.08
2023-02-22T03:25:08.987Z,90.16
2023-02-22T03:27:47.770Z,89.97
2023-02-22T03:30:24.101Z,90.05
2023-02-22T03:32:59.637Z,90.21
2023-02-22T03:35:36.158Z,90.23
2023-02-22T03:38:14.735Z,89.94
2023-02-22T03:40:48.911Z,90.23
2023-02-22T03:43:27.782Z,89.95
2023-02-22T03:46:03.891Z,89.86
2023-02-22T03:48:40.791Z,89.98
2023-02-22T03:51:11.511Z,90.09
2023-02-22T03:53:48.130Z,90.36
2023-02-22T03:56:27.027Z,90.34
2023-02-22T03:58:58.735Z,90.16
2023-02-22T04:01:28.610Z,90.14
2023-02-22T04:03:58.751Z,90.01
2023-02-22T04:06:29.251Z,89.94
2023-02-22T04:09:02.448Z,90.17
2023-02-22T04:11:33.314Z,90.09
2023-02-22T04:14:03.380Z,90.22
2023-02-22T04:16:33.715Z,90.38
2023-02-22T04:19:04.084Z,90.31
2023-02-22T04:21:34.280Z,90.44
2023-02-22T04:24:09.065Z,90.48
2023-02-22T04:26:39.055Z,90.31
2023-02-22T04:29:10.608Z,90.32
2023-02-22T04:31:42.837Z,90.37
2023-02-22T04:34:15.075Z,90.52
2023-02-22T04:36:47.182Z,90.65
2023-02-22T04:39:20.890Z,90.69
2023-02-22T04:41:50.988Z,90.46
2023-02-22T04:44:21.163Z,90.63
2023-02-22T04:46:51.089Z,90.37
2023-02-22T04:49:21.227Z,90.40
2023-02-22T04:51:52.433Z,90.56
2023-02-22T04:54:28.673Z,90.38
2023-02-22T04:57:00.052Z,90.31
2023-02-22T04:59:30.119Z,90.25
2023-02-22T05:02:03.476Z,89.74
2023-02-22T05:04:36.306Z,89.60
2023-02-22T05:07:07.249Z,89.28
2023-02-22T05:09:46.991Z,89.21
2023-02-22T05:12:17.037Z,89.07
2023-02-22T05:14:47.394Z,88.90
2023-02-22T05:17:17.301Z,89.02
2023-02-22T05:19:47.763Z,88.88
2023-02-22T05:22:17.805Z,88.81
2023-02-22T05:24:52.328Z,88.56
2023-02-22T05:27:22.735Z,88.67
2023-02-22T05:29:52.792Z,88.93
2023-02-22T05:32:22.684Z,88.98
2023-02-22T05:34:54.975Z,89.17
2023-02-22T05:37:24.840Z,89.36
2023-02-22T05:39:57.486Z,89.44
2023-02-22T05:42:27.350Z,89.67
2023-02-22T05:44:57.263Z,89.67
2023-02-22T05:47:27.233Z,89.92
2023-02-22T05:49:57.147Z,89.69
2023-02-22T05:52:27.182Z,89.61
2023-02-22T05:55:00.009Z,89.83
2023-02-22T05:57:29.892Z,89.93
2023-02-22T06:00:00.195Z,89.89
2023-02-22T06:02:30.525Z,89.71
2023-02-22T06:05:00.473Z,89.98
2023-02-22T06:07:30.351Z,90.00
2023-02-22T06:10:02.890Z,89.81
2023-02-22T06:12:32.716Z,90.20
2023-02-22T06:15:02.820Z,90.19
2023-02-22T06:17:32.783Z,90.03
2023-02-22T06:20:02.735Z,90.01
2023-02-22T06:22:41.111Z,89.87
2023-02-22T06:25:17.291Z,89.86
2023-02-22T06:27:47.453Z,89.89
2023-02-22T06:30:21.781Z,89.79
2023-02-22T06:32:52.361Z,89.80
2023-02-22T06:35:22.272Z,89.86
2023-02-22T06:37:52.260Z,89.67
2023-02-22T06:40:29.671Z,89.75
2023-02-22T06:43:01.033Z,89.56
2023-02-22T06:45:31.331Z,89.41
2023-02-22T06:48:04.694Z,89.22
2023-02-22T06:50:35.949Z,89.32
2023-02-22T06:53:06.554Z,89.08
2023-02-22T06:55:39.605Z,89.03
2023-02-22T06:58:09.456Z,89.20
2023-02-22T07:00:39.439Z,88.92
2023-02-22T07:03:15.116Z,88.77
2023-02-22T07:05:45.649Z,88.67
2023-02-22T07:08:17.202Z,88.26
2023-02-22T07:10:50.501Z,88.17
2023-02-22T07:13:20.449Z,88.14
2023-02-22T07:15:50.618Z,87.92
2023-02-22T07:18:20.756Z,88.00
2023-02-22T07:20:50.783Z,87.71
2023-02-22T07:23:21.957Z,87.39
2023-02-22T07:25:54.887Z,87.17
2023-02-22T07:28:25.182Z,86.96
2023-02-22T07:30:55.353Z,87.11
2023-02-22T07:33:27.026Z,87.10
2023-02-22T07:35:59.451Z,87.02
2023-02-22T07:38:29.408Z,86.87
2023-02-22T07:41:02.201Z,86.88
2023-02-22T07:43:33.228Z,86.55
2023-02-22T07:46:05.129Z,86.44
2023-02-22T07:48:35.643Z,86.31
2023-02-22T07:51:09.921Z,86.32
2023-02-22T07:53:40.906Z,86.06
2023-02-22T07:56:13.471Z,86.10
2023-02-22T07:58:43.425Z,86.27
2023-02-22T08:01:14.418Z,85.78
2023-02-22T08:03:48.005Z,85.74
2023-02-22T08:06:18.130Z,85.81
2023-02-22T08:08:49.374Z,85.55
2023-02-22T08:11:22.270Z,85.24
2023-02-22T08:13:56.662Z,85.16
2023-02-22T08:16:26.497Z,85.25
2023-02-22T08:18:57.304Z,85.17
2023-02-22T08:21:27.509Z,85.06
2023-02-22T08:23:59.285Z,85.18
2023-02-22T08:26:32.118Z,85.10
2023-02-22T08:29:02.100Z,85.12
2023-02-22T08:31:32.062Z,84.84
2023-02-22T08:34:02.088Z,85.15
2023-02-22T08:36:33.124Z,84.91
2023-02-22T08:39:12.095Z,84.67
2023-02-22T08:41:45.377Z,84.51
2023-02-22T08:44:18.330Z,84.38
2023-02-22T08:46:48.440Z,84.36
2023-02-22T08:49:18.398Z,84.06
2023-02-22T08:51:49.316Z,84.06
2023-02-22T08:54:20.176Z,83.93
2023-02-22T08:57:00.354Z,84.17
2023-02-22T08:59:33.501Z,84.39
2023-02-22T09:02:05.649Z,84.44
2023-02-22T09:04:35.575Z,84.20
2023-02-22T09:07:06.456Z,84.34
2023-02-22T09:09:36.352Z,84.36
2023-02-22T09:12:13.637Z,84.19
2023-02-22T09:14:43.712Z,84.17
2023-02-22T09:17:17.392Z,84.03
2023-02-22T09:19:48.285Z,84.03
2023-02-22T09:22:18.418Z,84.00
2023-02-22T09:24:48.440Z,84.35
2023-02-22T09:27:22.940Z,83.98
2023-02-22T09:29:53.197Z,83.96
2023-02-22T09:32:23.516Z,83.77
2023-02-22T09:34:54.353Z,83.60
2023-02-22T09:37:24.486Z,83.31
2023-02-22T09:39:54.539Z,83.04
2023-02-22T09:42:33.693Z,83.45
2023-02-22T09:45:12.882Z,83.48
2023-02-22T09:47:48.100Z,83.46
2023-02-22T09:50:20.605Z,83.73
2023-02-22T09:52:57.416Z,83.63
2023-02-22T09:55:36.950Z,83.51
2023-02-22T09:58:17.030Z,83.02
2023-02-22T10:00:51.651Z,82.80
2023-02-22T10:03:28.305Z,82.88
2023-02-22T10:06:03.820Z,82.93
2023-02-22T10:08:36.205Z,82.84
2023-02-22T10:11:25.750Z,83.01
2023-02-22T10:14:10.947Z,82.77
2023-02-22T10:16:46.436Z,82.76
2023-02-22T10:19:34.936Z,82.89
2023-02-22T10:22:27.238Z,83.04
2023-02-22T10:25:04.847Z,82.50
2023-02-22T10:27:38.741Z,82.24
2023-02-22T10:30:25.218Z,82.46
2023-02-22T10:33:01.503Z,82.28
2023-02-22T10:35:33.002Z,82.34
2023-02-22T10:38:10.519Z,82.11
2023-02-22T10:40:41.466Z,81.63
2023-02-22T10:43:12.683Z,82.00
2023-02-22T10:45:45.501Z,81.48
2023-02-22T10:48:18.741Z,81.48
2023-02-22T10:50:50.652Z,81.40
2023-02-22T10:53:21.527Z,81.57
2023-02-22T10:56:10.007Z,81.12
2023-02-22T10:58:49.307Z,81.28
2023-02-22T11:01:31.149Z,81.13
2023-02-22T11:04:10.351Z,81.18
2023-02-22T11:06:41.527Z,81.00
2023-02-22T11:09:14.962Z,80.91
2023-02-22T11:11:47.174Z,81.11
2023-02-22T11:14:29.675Z,81.04
2023-02-22T11:17:04.481Z,80.89
2023-02-22T11:19:38.460Z,80.93
2023-02-22T11:22:14.916Z,80.84
2023-02-22T11:24:58.424Z,80.39
2023-02-22T11:27:34.098Z,80.12
2023-02-22T11:30:29.920Z,80.36
2023-02-22T11:33:23.980Z,80.27
2023-02-22T11:35:55.910Z,79.99
2023-02-22T11:38:27.216Z,79.98
2023-02-22T11:41:24.332Z,79.67
2023-02-22T11:43:55.623Z,79.74
2023-02-22T11:46:29.196Z,79.80
2023-02-22T11:49:05.043Z,79.56
2023-02-22T11:52:06.744Z,79.50
2023-02-22T11:54:53.494Z,80.05
2023-02-22T11:57:36.993Z,80.46
2023-02-22T12:00:24.646Z,80.37
2023-02-22T12:03:16.470Z,80.64
2023-02-22T12:06:09.355Z,80.65
2023-02-22T12:08:55.702Z,80.65
2023-02-22T12:11:34.050Z,80.36
2023-02-22T12:14:16.315Z,80.31
2023-02-22T12:17:08.409Z,80.24
2023-02-22T12:19:46.167Z,80.46
2023-02-22T12:22:25.766Z,80.60
2023-02-22T12:25:09.395Z,80.55
2023-02-22T12:27:45.284Z,80.34
2023-02-22T12:30:19.203Z,80.77
2023-02-22T12:32:53.819Z,80.19
2023-02-22T12:35:27.688Z,80.45
2023-02-22T12:38:13.074Z,80.13
2023-02-22T12:40:54.080Z,79.92
2023-02-22T12:43:30.343Z,79.98
2023-02-22T12:46:06.053Z,79.81
2023-02-22T12:48:45.055Z,79.89
2023-02-22T12:51:28.355Z,79.70
2023-02-22T12:54:12.036Z,79.77
2023-02-22T12:56:47.607Z,79.59
2023-02-22T12:59:24.613Z,79.49
2023-02-22T13:01:58.813Z,79.32
2023-02-22T13:04:31.857Z,79.22
2023-02-22T13:07:21.984Z,79.21
2023-02-22T13:10:19.270Z,79.15
2023-02-22T13:12:57.554Z,78.89
2023-02-22T13:15:34.075Z,78.73
2023-02-22T13:18:13.450Z,78.58
2023-02-22T13:20:50.561Z,78.41
2023-02-22T13:23:33.949Z,78.60
2023-02-22T13:26:13.404Z,78.60
2023-02-22T13:28:49.556Z,78.40
2023-02-22T13:31:40.034Z,78.05
2023-02-22T13:34:41.812Z,77.84
2023-02-22T13:37:39.236Z,78.13
2023-02-22T13:40:33.654Z,78.29
2023-02-22T13:43:23.890Z,78.10
2023-02-22T13:46:24.952Z,77.65
2023-02-22T13:49:28.237Z,77.80
2023-02-22T13:52:04.348Z,77.95
2023-02-22T13:54:44.952Z,78.00
2023-02-22T13:57:23.205Z,78.00
2023-02-22T14:00:41.496Z,78.01
2023-02-22T14:03:36.260Z,78.05
2023-02-22T14:06:07.692Z,76.67
2023-02-22T14:08:45.641Z,78.09
2023-02-22T14:11:54.341Z,78.43
2023-02-22T14:14:24.898Z,78.58
2023-02-22T14:17:33.180Z,78.78
2023-02-22T14:20:30.256Z,78.67
2023-02-22T14:23:01.616Z,78.80
2023-02-22T14:25:43.569Z,79.12
2023-02-22T14:28:46.311Z,79.21
2023-02-22T14:31:33.623Z,78.99
2023-02-22T14:34:09.297Z,79.03
2023-02-22T14:36:52.646Z,78.89
2023-02-22T14:39:32.294Z,78.84
2023-02-22T14:42:09.103Z,79.02
2023-02-22T14:44:51.282Z,79.04
2023-02-22T14:47:28.317Z,78.97
2023-02-22T14:50:05.548Z,79.09
2023-02-22T14:52:43.547Z,78.89
2023-02-22T14:55:21.477Z,79.14
2023-02-22T14:58:06.432Z,78.95
2023-02-22T15:00:43.328Z,78.50
2023-02-22T15:03:21.871Z,78.45
2023-02-22T15:05:53.527Z,78.42
2023-02-22T15:08:28.635Z,78.63
2023-02-22T15:10:58.996Z,78.43
2023-02-22T15:13:33.027Z,78.04
2023-02-22T15:16:08.082Z,77.95
2023-02-22T15:18:43.497Z,78.34
2023-02-22T15:21:16.811Z,78.54
2023-02-22T15:23:52.199Z,78.39
2023-02-22T15:26:28.528Z,78.49
2023-02-22T15:28:59.466Z,78.69
2023-02-22T15:31:33.625Z,78.48
2023-02-22T15:34:13.218Z,77.26
2023-02-22T15:36:43.775Z,78.52
2023-02-22T15:39:27.261Z,78.95
2023-02-22T15:42:09.470Z,79.15
2023-02-22T15:44:43.101Z,79.16
2023-02-22T15:47:15.935Z,79.30
2023-02-22T15:49:45.856Z,79.35
2023-02-22T15:52:22.509Z,79.54
2023-02-22T15:54:55.508Z,79.68
2023-02-22T15:57:27.555Z,79.75
2023-02-22T15:59:59.993Z,79.97
2023-02-22T16:02:41.827Z,80.09
2023-02-22T16:05:14.630Z,80.33
2023-02-22T16:07:48.119Z,80.33
2023-02-22T16:10:28.107Z,80.53
2023-02-22T16:13:25.707Z,80.52
2023-02-22T16:16:03.605Z,80.58
2023-02-22T16:18:36.407Z,80.77
2023-02-22T16:21:13.225Z,81.09
2023-02-22T16:23:51.271Z,81.24
2023-02-22T16:26:29.717Z,81.40
2023-02-22T16:29:01.596Z,81.61
2023-02-22T16:31:33.990Z,81.73
2023-02-22T16:34:05.261Z,81.83
2023-02-22T16:36:43.811Z,81.98
2023-02-22T16:39:21.055Z,82.04
2023-02-22T16:41:54.682Z,81.85
2023-02-22T16:44:25.920Z,82.04
2023-02-22T16:46:59.897Z,82.05
2023-02-22T16:49:30.512Z,82.29
2023-02-22T16:52:03.373Z,82.34
2023-02-22T16:54:36.891Z,82.29
2023-02-22T16:57:12.847Z,82.23
2023-02-22T16:59:42.782Z,82.33
2023-02-22T17:02:16.461Z,82.66
2023-02-22T17:04:50.068Z,82.61
2023-02-22T17:07:23.963Z,82.70
2023-02-22T17:09:53.800Z,82.69
2023-02-22T17:12:26.297Z,82.78
2023-02-22T17:14:56.192Z,82.79
2023-02-22T17:17:26.516Z,82.99
2023-02-22T17:19:56.591Z,82.76
2023-02-22T17:22:26.534Z,82.91
2023-02-22T17:24:56.490Z,82.86
2023-02-22T17:27:28.971Z,82.98
2023-02-22T17:29:59.371Z,83.09
2023-02-22T17:32:29.603Z,83.41
2023-02-22T17:34:59.858Z,83.29
2023-02-22T17:37:29.788Z,83.44
2023-02-22T17:39:59.717Z,83.32
2023-02-22T17:42:32.465Z,83.38
2023-02-22T17:45:02.552Z,83.33
2023-02-22T17:47:33.427Z,83.36
2023-02-22T17:50:03.667Z,83.25
2023-02-22T17:52:34.420Z,83.50
2023-02-22T17:55:07.329Z,83.43
2023-02-22T18:29:56.933Z,84.16
2023-02-22T18:32:30.948Z,84.23
2023-02-22T18:35:02.582Z,83.95
2023-02-22T18:37:32.984Z,84.34
2023-02-22T18:40:10.298Z,84.16
2023-02-22T18:42:41.945Z,84.46
2023-02-22T18:45:15.193Z,84.31
2023-02-22T18:47:50.017Z,84.52
2023-02-22T18:50:20.235Z,84.19
2023-02-22T18:52:50.111Z,84.46
2023-02-22T18:55:24.060Z,84.29
2023-02-22T18:57:57.982Z,84.37
2023-02-22T19:00:31.990Z,84.49
2023-02-22T19:03:02.021Z,84.59
2023-02-22T19:05:33.380Z,84.48
2023-02-22T19:08:11.398Z,84.53
2023-02-22T19:10:41.562Z,84.51
2023-02-22T19:13:12.191Z,84.71
2023-02-22T19:15:45.340Z,84.71
2023-02-22T19:18:15.944Z,84.78
2023-02-22T19:20:47.571Z,84.87
2023-02-22T19:23:17.664Z,84.80
2023-02-22T19:25:50.344Z,84.97
2023-02-22T19:28:20.742Z,85.33
2023-02-22T19:30:53.265Z,85.22
2023-02-22T19:33:26.132Z,85.38
2023-02-22T19:35:56.732Z,85.21
2023-02-22T19:38:26.805Z,85.30
2023-02-22T19:40:57.935Z,85.51
2023-02-22T19:43:28.652Z,85.63
2023-02-22T19:46:09.088Z,85.43
2023-02-22T19:48:40.269Z,85.42
2023-02-22T19:51:13.249Z,85.55
2023-02-22T19:53:44.632Z,85.61
2023-02-22T19:56:16.470Z,85.36
2023-02-22T19:58:48.446Z,85.60
2023-02-22T20:01:24.107Z,85.74
2023-02-22T20:03:55.044Z,85.61
2023-02-22T20:06:28.471Z,85.78
2023-02-22T20:09:01.481Z,85.57
2023-02-22T20:11:33.340Z,85.69
2023-02-22T20:14:06.637Z,85.83
2023-02-22T20:16:46.244Z,85.87
2023-02-22T20:19:20.735Z,86.00
2023-02-22T20:21:52.600Z,85.72
2023-02-22T20:24:22.999Z,86.04
2023-02-22T20:26:56.636Z,85.99
2023-02-22T20:29:35.975Z,85.89
2023-02-22T20:32:15.434Z,85.83
2023-02-22T20:34:51.842Z,85.78
2023-02-22T20:37:22.540Z,85.96
2023-02-22T20:39:54.057Z,86.15
2023-02-22T20:42:24.406Z,85.85
2023-02-22T20:44:54.958Z,85.79
2023-02-22T20:47:28.374Z,86.07
2023-02-22T20:49:58.495Z,86.20
2023-02-22T20:52:28.577Z,86.08
2023-02-22T20:54:59.200Z,86.12
2023-02-22T20:57:29.591Z,86.16
2023-02-22T21:00:00.642Z,86.03
2023-02-22T21:02:33.975Z,86.11
2023-02-22T21:05:04.375Z,86.17
2023-02-22T21:07:34.968Z,86.05
2023-02-22T21:10:06.292Z,86.50
2023-02-22T21:12:45.242Z,86.15
2023-02-22T21:15:27.460Z,86.07
2023-02-22T21:18:07.172Z,86.20
2023-02-22T21:20:55.336Z,86.14
2023-02-22T21:26:41.665Z,86.05
2023-02-22T21:29:23.976Z,86.22
2023-02-22T21:32:22.631Z,86.14
2023-02-22T21:41:45.204Z,85.98
2023-02-22T21:44:16.669Z,86.02
2023-02-22T21:46:50.882Z,86.27
2023-02-22T21:49:23.048Z,86.10
2023-02-22T21:51:57.947Z,86.17
2023-02-22T21:54:35.219Z,86.30
2023-02-22T21:57:09.721Z,86.41
2023-02-22T21:59:47.887Z,86.43
2023-02-22T22:02:26.616Z,86.49
2023-02-22T22:05:03.618Z,86.71
2023-02-22T22:07:57.121Z,86.73
2023-02-22T22:11:01.637Z,86.90
2023-02-22T22:13:43.639Z,86.83
2023-02-22T22:19:27.034Z,86.95
2023-02-22T22:22:06.471Z,86.97
2023-02-22T22:27:57.541Z,86.96
2023-02-22T22:30:36.100Z,87.20
2023-02-22T22:36:44.318Z,87.19
2023-02-22T22:39:27.511Z,87.26
2023-02-22T22:42:06.017Z,87.09
2023-02-22T22:45:03.220Z,87.19
2023-02-22T22:51:33.809Z,87.06
2023-02-22T22:54:29.554Z,86.94
2023-02-22T22:57:31.829Z,87.03
2023-02-22T23:03:31.070Z,87.28
2023-02-22T23:06:34.949Z,87.27
2023-02-22T23:09:22.589Z,87.28
2023-02-22T23:12:11.801Z,87.20
2023-02-22T23:14:46.287Z,87.05
2023-02-22T23:17:32.171Z,87.22
2023-02-22T23:20:11.449Z,87.49
2023-02-22T23:22:47.845Z,87.38
2023-02-22T23:25:20.228Z,87.62
2023-02-22T23:27:51.825Z,87.79
2023-02-22T23:30:22.668Z,87.57
2023-02-22T23:32:57.227Z,87.58
2023-02-22T23:35:27.801Z,87.62
2023-02-22T23:37:58.945Z,87.69
2023-02-22T23:40:30.165Z,87.75
2023-02-22T23:43:04.288Z,87.55
2023-02-22T23:45:38.875Z,87.59
2023-02-22T23:48:12.904Z,87.98
2023-02-22T23:50:44.781Z,87.73
2023-02-22T23:53:15.961Z,88.01
2023-02-22T23:55:47.163Z,88.12
2023-02-22T23:58:18.650Z,88.13
